Portada
METAR-TAF:

METAR-TAF

Aeroports :

Aeroport de Gran Canària

Gran Canària, Espanya

latitud: 27-56N, longitud: 015-23W, altitud: 23 m

Observació

L'informe es va fer fa 18 minuts, a les 07:30 UTC
Vent 1 kt amb direcció variable
Temperatura 17°C
Humitat 63%
Pressió 1020 hPa
Visibilitat 10 km o més
Escasses núvols a una alçada de 3500 ft

METAR: GCLP 190730Z VRB01KT 9999 FEW035 17/10 Q1020 NOSIG

Hora: 07:48 (07:48 UTC)

Pronòstic

L'informe es va fer fa 5 hores i 48 minuts, a les 02:00 UTC
Pronòstic vàlid del 19 a les 03 UTC al 20 a les 03 UTC
Vent 8 kt del Nord-Oest
Visibilitat 10 km o més
Núvols disperses a una alçada de 3000 ft
Evolucionant progressivament
l' 19 a les 09 UTC al 19 a les 12 UTC
Vent 12 kt del Nord/Nord-Est
Probabilitat 30% :
Temporalment
l' 19 a les 09 UTC al 19 a les 18 UTC
pluja

TAF: GCLP 190200Z 1903/2003 32008KT 9999 SCT030 TX23/1914Z TN17/1907Z BECMG 1909/1912 02012KT PROB30 TEMPO 1909/1918 RA

Observacions i pronòstics meteorològics de més de 4000 aeroports (METAR i TAF).

Les estacions disponibles són els punts grocs i vermells al mapa.

Posi el ratolí al punt desitjat per veure el nom de l'estació.

Feu clic per veure les observacions i els pronòstics meteorològics.

Per canviar el mapa: feu clic els botons verds amb una creu de color negre per apropar; al botó verd amb un guió per allunyar la imatge; o en les fletxes verdes per a mapes adjacents.


METAR-TAF: